Time;durP1;ratioP1;P1;durP2;ratioP2;P2;SDS_P1;SDS_P2;PMS_P1;PMS_P2;Temp;Humidity;BMP_temperature;BMP_pressure;BME280_temperature;BME280_humidity;BME280_pressure;Samples;Min_cycle;Max_cycle;Signal;HPM_P1;HPM_P2
2023/03/08 00:01:38;;;;;;;10.13;2.13;;;;;;;;;;5052752;28;20477;-83
2023/03/08 00:04:04;;;;;;;5.87;1.00;;;;;;;;;;5052809;28;20968;-86
2023/03/08 00:06:30;;;;;;;1.43;0.93;;;;;;;;;;5053127;28;20419;-86
2023/03/08 00:08:57;;;;;;;1.40;0.57;;;;;;;;;;5053189;28;20484;-86
2023/03/08 00:11:23;;;;;;;5.87;0.87;;;;;;;;;;5035244;28;20888;-88
2023/03/08 00:13:49;;;;;;;0.57;0.50;;;;;;;;;;5024139;28;20522;-86
2023/03/08 00:16:15;;;;;;;4.17;1.50;;;;;;;;;;5000555;28;20555;-84
2023/03/08 00:18:41;;;;;;;3.87;1.30;;;;;;;;;;5032810;28;20500;-83
2023/03/08 00:21:07;;;;;;;3.50;1.57;;;;;;;;;;5032526;28;20463;-84
2023/03/08 00:23:33;;;;;;;5.83;1.20;;;;;;;;;;5032809;28;20897;-84
2023/03/08 00:26:00;;;;;;;3.23;1.10;;;;;;;;;;5037009;28;20409;-84
2023/03/08 00:28:26;;;;;;;1.37;0.63;;;;;;;;;;5057173;28;20757;-88
2023/03/08 00:30:59;;;;;;;4.10;1.30;;;;;;;;;;5038207;28;21053;-83
2023/03/08 00:33:25;;;;;;;3.50;1.10;;;;;;;;;;5046358;28;20421;-84
2023/03/08 00:36:13;;;;;;;3.50;1.20;;;;;;;;;;5035849;28;20409;-84
2023/03/08 00:38:39;;;;;;;2.73;1.30;;;;;;;;;;5035892;28;20476;-84
2023/03/08 00:41:05;;;;;;;4.63;0.83;;;;;;;;;;5018543;28;20439;-84
2023/03/08 00:43:31;;;;;;;1.40;0.87;;;;;;;;;;5036190;28;20950;-83
2023/03/08 00:45:57;;;;;;;2.20;1.47;;;;;;;;;;5036290;28;20471;-83
2023/03/08 00:48:23;;;;;;;4.23;1.60;;;;;;;;;;5036131;28;20408;-83
2023/03/08 00:50:49;;;;;;;2.13;1.27;;;;;;;;;;5035346;28;20470;-83
2023/03/08 00:53:15;;;;;;;2.77;1.27;;;;;;;;;;5035729;28;20409;-83
2023/03/08 00:55:51;;;;;;;0.87;0.87;;;;;;;;;;5035315;28;20419;-82
2023/03/08 00:58:17;;;;;;;2.03;1.20;;;;;;;;;;5043473;28;20468;-82
2023/03/08 01:00:44;;;;;;;1.90;1.70;;;;;;;;;;5017637;28;20751;-83
2023/03/08 01:03:10;;;;;;;1.40;1.30;;;;;;;;;;5017725;28;20410;-83
2023/03/08 01:05:42;;;;;;;1.60;1.50;;;;;;;;;;5035303;28;20488;-83
2023/03/08 01:08:08;;;;;;;2.87;1.20;;;;;;;;;;5035725;28;20762;-86
2023/03/08 01:10:34;;;;;;;1.40;0.87;;;;;;;;;;5017909;28;20503;-86
2023/03/08 01:13:00;;;;;;;1.70;1.10;;;;;;;;;;5017605;28;20419;-86
2023/03/08 01:15:26;;;;;;;4.40;2.47;;;;;;;;;;5017848;28;20772;-87
2023/03/08 01:17:52;;;;;;;2.37;1.30;;;;;;;;;;5017636;28;20480;-86
2023/03/08 01:20:18;;;;;;;1.70;1.20;;;;;;;;;;5017595;28;20418;-87
2023/03/08 01:22:44;;;;;;;1.17;0.73;;;;;;;;;;5035326;28;20458;-87
2023/03/08 01:25:10;;;;;;;1.77;1.67;;;;;;;;;;5035430;28;20417;-87
2023/03/08 01:27:36;;;;;;;1.20;1.10;;;;;;;;;;5017670;28;20473;-87
2023/03/08 01:30:02;;;;;;;1.83;1.40;;;;;;;;;;5017497;28;20422;-87
2023/03/08 01:32:28;;;;;;;2.50;1.43;;;;;;;;;;5035202;28;20478;-86
2023/03/08 01:34:55;;;;;;;2.00;1.10;;;;;;;;;;5017174;28;20415;-87
2023/03/08 01:37:21;;;;;;;1.27;0.83;;;;;;;;;;5016072;28;20579;-84
2023/03/08 01:39:46;;;;;;;1.00;0.90;;;;;;;;;;5017451;28;20547;-84
2023/03/08 01:42:12;;;;;;;2.43;1.20;;;;;;;;;;5035045;28;21110;-85
2023/03/08 01:45:08;;;;;;;1.40;1.23;;;;;;;;;;5034754;28;20406;-84
2023/03/08 01:47:34;;;;;;;1.07;0.97;;;;;;;;;;5017805;28;20427;-86
2023/03/08 01:50:09;;;;;;;6.57;1.80;;;;;;;;;;5016375;28;20847;-84
2023/03/08 01:52:45;;;;;;;1.37;1.13;;;;;;;;;;5034630;28;20455;-84
2023/03/08 01:55:12;;;;;;;5.33;1.70;;;;;;;;;;5034642;28;20474;-84
2023/03/08 01:57:40;;;;;;;2.07;1.30;;;;;;;;;;5035946;28;20540;-85
2023/03/08 02:00:08;;;;;;;2.07;1.20;;;;;;;;;;5036992;28;20416;-87
2023/03/08 02:02:39;;;;;;;1.37;1.00;;;;;;;;;;5054619;28;20412;-85
2023/03/08 02:05:06;;;;;;;2.77;1.37;;;;;;;;;;5054554;28;20413;-85
2023/03/08 02:07:32;;;;;;;1.50;1.40;;;;;;;;;;5054834;28;20449;-85
2023/03/08 02:09:58;;;;;;;1.90;1.43;;;;;;;;;;5054883;28;20849;-85
2023/03/08 02:12:24;;;;;;;1.30;1.00;;;;;;;;;;5054860;28;20405;-86
2023/03/08 02:14:50;;;;;;;5.30;1.47;;;;;;;;;;5011903;28;20423;-84
2023/03/08 02:17:15;;;;;;;2.30;1.30;;;;;;;;;;5054415;28;20517;-85
2023/03/08 02:19:41;;;;;;;5.37;1.20;;;;;;;;;;5035414;28;20412;-85
2023/03/08 02:22:08;;;;;;;3.43;1.67;;;;;;;;;;5053645;28;20423;-83
2023/03/08 02:24:35;;;;;;;8.00;3.13;;;;;;;;;;5053772;28;20474;-88
2023/03/08 02:27:01;;;;;;;2.77;1.80;;;;;;;;;;5054378;28;20409;-84
2023/03/08 02:29:27;;;;;;;1.80;1.30;;;;;;;;;;5035729;28;20511;-82
2023/03/08 02:31:53;;;;;;;2.03;1.87;;;;;;;;;;5054021;28;20416;-83
2023/03/08 02:34:19;;;;;;;2.80;1.77;;;;;;;;;;5052042;28;20430;-84
2023/03/08 02:36:45;;;;;;;1.77;1.63;;;;;;;;;;5053860;28;20998;-84
2023/03/08 02:39:11;;;;;;;1.90;1.77;;;;;;;;;;5053958;28;20415;-84
2023/03/08 02:41:37;;;;;;;7.03;3.13;;;;;;;;;;5036005;28;20424;-86
2023/03/08 02:44:03;;;;;;;4.53;2.67;;;;;;;;;;5035858;28;20765;-84
2023/03/08 02:46:29;;;;;;;3.73;1.73;;;;;;;;;;5053657;28;20426;-83
2023/03/08 02:48:58;;;;;;;5.40;2.60;;;;;;;;;;5053363;28;20404;-85
2023/03/08 02:51:24;;;;;;;3.40;2.13;;;;;;;;;;5053616;28;20489;-84
2023/03/08 02:53:50;;;;;;;3.00;2.53;;;;;;;;;;5035652;28;20424;-87
2023/03/08 02:56:16;;;;;;;3.63;3.33;;;;;;;;;;5035750;28;20420;-84
2023/03/08 02:58:42;;;;;;;4.57;3.53;;;;;;;;;;5053569;28;20496;-85
2023/03/08 03:01:12;;;;;;;6.03;3.23;;;;;;;;;;5053302;28;20487;-84
2023/03/08 03:03:38;;;;;;;6.13;4.60;;;;;;;;;;5035107;28;20917;-84
2023/03/08 03:06:12;;;;;;;5.43;3.37;;;;;;;;;;5052857;28;20420;-85
2023/03/08 03:08:37;;;;;;;5.07;4.43;;;;;;;;;;5053550;28;20429;-85
2023/03/08 03:11:10;;;;;;;9.50;4.27;;;;;;;;;;5053483;28;20485;-84
2023/03/08 03:13:35;;;;;;;4.67;3.70;;;;;;;;;;5039695;28;20413;-85
2023/03/08 03:16:05;;;;;;;5.27;4.17;;;;;;;;;;5033326;28;20919;-86
2023/03/08 03:18:31;;;;;;;6.13;3.60;;;;;;;;;;5032748;28;20468;-86
2023/03/08 03:21:05;;;;;;;4.47;3.93;;;;;;;;;;5033711;28;20403;-90
2023/03/08 03:23:34;;;;;;;6.97;3.67;;;;;;;;;;5016213;28;20428;-87
2023/03/08 03:26:04;;;;;;;3.83;3.47;;;;;;;;;;5015990;28;20409;-86
2023/03/08 03:28:30;;;;;;;5.50;3.70;;;;;;;;;;5036478;28;20412;-86
2023/03/08 03:30:56;;;;;;;5.17;4.37;;;;;;;;;;5035246;28;20486;-86
2023/03/08 03:33:22;;;;;;;6.30;4.07;;;;;;;;;;5053110;28;20408;-87
2023/03/08 03:35:48;;;;;;;4.93;3.83;;;;;;;;;;5014366;28;21025;-88
2023/03/08 03:38:14;;;;;;;5.50;4.77;;;;;;;;;;5035895;28;20495;-87
2023/03/08 03:40:40;;;;;;;7.97;5.47;;;;;;;;;;5035777;28;20459;-87
2023/03/08 03:43:09;;;;;;;7.00;4.87;;;;;;;;;;5036001;28;20417;-87
2023/03/08 03:45:35;;;;;;;8.07;5.00;;;;;;;;;;5035920;28;20795;-86
2023/03/08 03:48:01;;;;;;;8.90;6.43;;;;;;;;;;5036363;28;20541;-87
2023/03/08 03:50:27;;;;;;;7.80;6.50;;;;;;;;;;5035561;28;20488;-87
2023/03/08 03:52:52;;;;;;;9.53;6.17;;;;;;;;;;5036081;28;20420;-87
2023/03/08 03:55:18;;;;;;;8.10;6.10;;;;;;;;;;5035461;28;20410;-82
2023/03/08 03:57:44;;;;;;;8.70;5.87;;;;;;;;;;5035034;28;20468;-82
2023/03/08 04:00:11;;;;;;;7.17;5.93;;;;;;;;;;5052412;28;20844;-83
2023/03/08 04:02:36;;;;;;;14.10;6.00;;;;;;;;;;5052783;28;20423;-83
2023/03/08 04:05:02;;;;;;;8.40;5.70;;;;;;;;;;5034396;28;20772;-87
2023/03/08 04:07:28;;;;;;;7.03;5.40;;;;;;;;;;5035532;28;20419;-88
2023/03/08 04:09:54;;;;;;;7.30;5.83;;;;;;;;;;5053031;28;20418;-84
2023/03/08 04:12:20;;;;;;;6.40;4.50;;;;;;;;;;5052811;28;20408;-84
2023/03/08 04:14:46;;;;;;;7.93;5.43;;;;;;;;;;5035120;28;20416;-83
2023/03/08 04:17:12;;;;;;;12.30;5.10;;;;;;;;;;5052732;28;20988;-82
2023/03/08 04:19:38;;;;;;;6.00;4.97;;;;;;;;;;5052522;28;20515;-82
2023/03/08 04:22:04;;;;;;;8.07;6.03;;;;;;;;;;5034826;28;20940;-81
2023/03/08 04:24:30;;;;;;;7.80;5.50;;;;;;;;;;5052621;28;20413;-82
2023/03/08 04:26:59;;;;;;;8.97;5.77;;;;;;;;;;5052563;28;20412;-83
2023/03/08 04:29:25;;;;;;;6.00;5.37;;;;;;;;;;5052652;28;20412;-82
2023/03/08 04:31:51;;;;;;;8.23;5.90;;;;;;;;;;5052575;28;20436;-82
2023/03/08 04:34:17;;;;;;;9.10;6.03;;;;;;;;;;5031271;28;20508;-81
2023/03/08 04:36:42;;;;;;;9.97;6.77;;;;;;;;;;4994610;28;20823;-81
2023/03/08 04:39:08;;;;;;;10.93;5.73;;;;;;;;;;5013368;28;20431;-82
2023/03/08 04:41:34;;;;;;;11.20;7.17;;;;;;;;;;5014933;28;20433;-84
2023/03/08 04:44:00;;;;;;;7.80;5.33;;;;;;;;;;5032759;28;20456;-84
2023/03/08 04:46:27;;;;;;;8.30;6.93;;;;;;;;;;5014877;28;20922;-85
2023/03/08 04:48:54;;;;;;;8.27;5.93;;;;;;;;;;5014165;28;20537;-83
2023/03/08 04:51:21;;;;;;;8.37;6.57;;;;;;;;;;5032566;28;20547;-84
2023/03/08 04:53:47;;;;;;;10.00;6.43;;;;;;;;;;5014846;28;20774;-83
2023/03/08 04:56:13;;;;;;;11.30;7.63;;;;;;;;;;5014833;28;20462;-85
2023/03/08 04:58:39;;;;;;;7.67;4.80;;;;;;;;;;5032475;28;20858;-85
2023/03/08 05:01:13;;;;;;;6.70;6.00;;;;;;;;;;5032538;28;20401;-87
2023/03/08 05:03:39;;;;;;;9.73;6.40;;;;;;;;;;5032241;28;20417;-84
2023/03/08 05:06:06;;;;;;;9.43;6.70;;;;;;;;;;5032358;28;20405;-85
2023/03/08 05:08:31;;;;;;;8.17;5.60;;;;;;;;;;5032395;28;20415;-85
2023/03/08 05:10:59;;;;;;;7.80;5.50;;;;;;;;;;5032401;28;20422;-84
2023/03/08 05:13:25;;;;;;;7.67;5.90;;;;;;;;;;5017020;28;20413;-85
2023/03/08 05:15:52;;;;;;;9.30;6.43;;;;;;;;;;5018156;28;20777;-85
2023/03/08 05:18:18;;;;;;;11.33;5.40;;;;;;;;;;5035375;28;20477;-84
2023/03/08 05:20:44;;;;;;;8.77;5.53;;;;;;;;;;5017950;28;20965;-83
2023/03/08 05:23:10;;;;;;;8.47;6.87;;;;;;;;;;5035609;28;20512;-84
2023/03/08 05:25:42;;;;;;;8.60;7.03;;;;;;;;;;5017940;28;20423;-84
2023/03/08 05:28:08;;;;;;;10.00;6.03;;;;;;;;;;5035510;28;20500;-83
2023/03/08 05:30:34;;;;;;;10.00;6.10;;;;;;;;;;5035581;28;20444;-85
2023/03/08 05:33:00;;;;;;;7.97;6.10;;;;;;;;;;5017448;28;20421;-84
2023/03/08 05:35:26;;;;;;;11.00;6.90;;;;;;;;;;5035490;28;20431;-84
2023/03/08 05:37:52;;;;;;;9.63;7.10;;;;;;;;;;5005267;28;20465;-86
2023/03/08 05:40:18;;;;;;;12.57;6.50;;;;;;;;;;5035812;28;20790;-84
2023/03/08 05:42:44;;;;;;;11.10;6.60;;;;;;;;;;5053958;28;20413;-85
2023/03/08 05:45:10;;;;;;;9.33;6.57;;;;;;;;;;5037046;28;20431;-86
2023/03/08 05:47:36;;;;;;;9.47;5.93;;;;;;;;;;5036712;28;20436;-85
2023/03/08 05:50:05;;;;;;;9.83;5.87;;;;;;;;;;5054629;28;20413;-86
2023/03/08 05:52:31;;;;;;;11.23;6.93;;;;;;;;;;5036963;28;20990;-85
2023/03/08 05:54:57;;;;;;;11.50;7.53;;;;;;;;;;5037308;28;20416;-85
2023/03/08 05:57:23;;;;;;;12.50;6.77;;;;;;;;;;5037251;28;20473;-85
2023/03/08 05:59:49;;;;;;;7.87;5.17;;;;;;;;;;5037038;28;20804;-85
2023/03/08 06:02:15;;;;;;;8.73;5.90;;;;;;;;;;5018932;28;20507;-86
2023/03/08 06:04:40;;;;;;;8.63;5.37;;;;;;;;;;5035575;28;20417;-86
2023/03/08 06:07:06;;;;;;;7.80;5.27;;;;;;;;;;5017397;28;20477;-86
2023/03/08 06:09:32;;;;;;;8.07;5.57;;;;;;;;;;5017178;28;20444;-86
2023/03/08 06:11:58;;;;;;;8.80;5.50;;;;;;;;;;5017234;28;20421;-85
2023/03/08 06:14:24;;;;;;;9.50;5.97;;;;;;;;;;5017038;28;20832;-85
2023/03/08 06:16:50;;;;;;;7.73;5.83;;;;;;;;;;5017017;28;20468;-87
2023/03/08 06:19:19;;;;;;;10.83;6.27;;;;;;;;;;5016880;28;20440;-85
2023/03/08 06:21:45;;;;;;;7.43;5.43;;;;;;;;;;5017158;28;20758;-86
2023/03/08 06:24:11;;;;;;;12.73;6.50;;;;;;;;;;5034702;28;20432;-86
2023/03/08 06:26:37;;;;;;;6.77;5.60;;;;;;;;;;5016915;28;20420;-85
2023/03/08 06:29:03;;;;;;;8.50;5.40;;;;;;;;;;5016999;28;20785;-86
2023/03/08 06:31:29;;;;;;;10.83;5.63;;;;;;;;;;5034285;28;20409;-86
2023/03/08 06:33:55;;;;;;;11.10;6.10;;;;;;;;;;5015265;28;20938;-85
2023/03/08 06:36:21;;;;;;;9.20;5.37;;;;;;;;;;5034363;28;20409;-85
2023/03/08 06:38:47;;;;;;;9.77;5.33;;;;;;;;;;5034475;28;20469;-85
2023/03/08 06:41:14;;;;;;;13.17;6.33;;;;;;;;;;5016548;28;20416;-85
2023/03/08 06:43:40;;;;;;;9.90;6.30;;;;;;;;;;5016509;28;20424;-84
2023/03/08 06:46:13;;;;;;;7.30;4.80;;;;;;;;;;5016357;28;20834;-85
2023/03/08 06:48:40;;;;;;;6.00;4.20;;;;;;;;;;5033810;28;20750;-85
2023/03/08 06:51:06;;;;;;;8.60;5.40;;;;;;;;;;5016417;28;20470;-86
2023/03/08 06:53:34;;;;;;;11.17;6.97;;;;;;;;;;5035359;28;20505;-84
2023/03/08 06:56:02;;;;;;;8.73;6.20;;;;;;;;;;4975455;28;20884;-85
2023/03/08 06:58:27;;;;;;;6.67;4.93;;;;;;;;;;5033949;28;20468;-85
2023/03/08 07:00:54;;;;;;;7.83;4.43;;;;;;;;;;5016157;28;20416;-85
2023/03/08 07:03:20;;;;;;;8.57;5.10;;;;;;;;;;5033500;28;20477;-87
2023/03/08 07:05:46;;;;;;;9.40;7.53;;;;;;;;;;5016499;28;20825;-87
2023/03/08 07:08:12;;;;;;;8.50;6.30;;;;;;;;;;5016393;28;20432;-87
2023/03/08 07:10:37;;;;;;;11.33;5.97;;;;;;;;;;5017393;28;20429;-86
2023/03/08 07:13:03;;;;;;;13.60;6.80;;;;;;;;;;5017064;28;20426;-89
2023/03/08 07:15:29;;;;;;;11.13;5.63;;;;;;;;;;5017615;28;20419;-89
2023/03/08 07:17:56;;;;;;;10.40;5.20;;;;;;;;;;5034570;28;20519;-89
2023/03/08 07:20:23;;;;;;;9.43;4.30;;;;;;;;;;5017327;28;20413;-89
2023/03/08 07:22:49;;;;;;;8.53;5.70;;;;;;;;;;5017458;28;20427;-89
2023/03/08 07:25:16;;;;;;;8.73;5.13;;;;;;;;;;5017416;28;20844;-90
2023/03/08 07:27:42;;;;;;;10.03;5.70;;;;;;;;;;5017291;28;20420;-87
2023/03/08 07:30:08;;;;;;;9.20;5.80;;;;;;;;;;5016106;28;20428;-87
2023/03/08 07:32:34;;;;;;;11.27;5.90;;;;;;;;;;5015684;28;20426;-87
2023/03/08 07:35:03;;;;;;;7.70;6.03;;;;;;;;;;5014615;28;20413;-86
2023/03/08 07:37:29;;;;;;;9.70;6.20;;;;;;;;;;5014971;28;20508;-86
2023/03/08 07:39:55;;;;;;;9.03;5.40;;;;;;;;;;5015360;28;20428;-85
2023/03/08 07:42:21;;;;;;;7.87;5.40;;;;;;;;;;5033260;28;20494;-86
2023/03/08 07:44:47;;;;;;;9.60;6.40;;;;;;;;;;5033188;28;20502;-85
2023/03/08 07:47:13;;;;;;;10.27;5.93;;;;;;;;;;5033204;28;20428;-84
2023/03/08 07:49:39;;;;;;;10.57;5.33;;;;;;;;;;5032797;28;20467;-84
2023/03/08 07:52:05;;;;;;;12.40;6.43;;;;;;;;;;5015296;28;20500;-84
2023/03/08 07:54:31;;;;;;;14.43;5.60;;;;;;;;;;5033092;28;20849;-85
2023/03/08 07:56:57;;;;;;;9.90;5.80;;;;;;;;;;5033012;28;20585;-84
2023/03/08 07:59:23;;;;;;;8.30;5.20;;;;;;;;;;5032991;28;20924;-84
2023/03/08 08:01:48;;;;;;;8.03;5.87;;;;;;;;;;5032920;28;20413;-85
2023/03/08 08:04:15;;;;;;;9.57;4.73;;;;;;;;;;5032649;28;20454;-85
2023/03/08 08:06:41;;;;;;;11.63;6.60;;;;;;;;;;5027665;28;20428;-86
2023/03/08 08:09:08;;;;;;;8.27;4.83;;;;;;;;;;5034836;28;20427;-85
2023/03/08 08:11:34;;;;;;;7.60;5.17;;;;;;;;;;5052701;28;20415;-85
2023/03/08 08:14:01;;;;;;;9.37;6.70;;;;;;;;;;5052636;28;20867;-84
2023/03/08 08:16:27;;;;;;;7.03;4.00;;;;;;;;;;5052722;28;20429;-85
2023/03/08 08:18:53;;;;;;;5.67;3.70;;;;;;;;;;5052264;28;20513;-84
2023/03/08 08:21:19;;;;;;;9.53;5.53;;;;;;;;;;4996442;28;20455;-85
2023/03/08 08:23:45;;;;;;;8.87;4.13;;;;;;;;;;5015098;28;20928;-87
2023/03/08 08:26:15;;;;;;;6.63;4.37;;;;;;;;;;5015061;28;20520;-87
2023/03/08 08:28:42;;;;;;;8.20;5.53;;;;;;;;;;5015998;28;20500;-87
2023/03/08 08:31:09;;;;;;;6.80;4.77;;;;;;;;;;5033070;28;20534;-88
2023/03/08 08:33:35;;;;;;;8.67;5.20;;;;;;;;;;5032842;28;20408;-88
2023/03/08 08:36:03;;;;;;;6.97;4.43;;;;;;;;;;5015396;28;20939;-85
2023/03/08 08:38:29;;;;;;;5.93;4.07;;;;;;;;;;5015194;28;20500;-87
2023/03/08 08:40:57;;;;;;;7.63;4.20;;;;;;;;;;5032839;28;20405;-88
2023/03/08 08:43:23;;;;;;;6.73;4.20;;;;;;;;;;5032946;28;20440;-86
2023/03/08 08:45:53;;;;;;;6.80;4.20;;;;;;;;;;5036700;28;20952;-84
2023/03/08 08:48:19;;;;;;;6.67;4.07;;;;;;;;;;5051343;28;20499;-85
2023/03/08 08:50:45;;;;;;;5.73;3.50;;;;;;;;;;5055938;28;20531;-85
2023/03/08 08:53:11;;;;;;;4.87;4.03;;;;;;;;;;5056009;28;20414;-85
2023/03/08 08:55:37;;;;;;;6.40;4.63;;;;;;;;;;5038128;28;20410;-85
2023/03/08 08:58:04;;;;;;;4.97;2.83;;;;;;;;;;5055882;28;20478;-84
2023/03/08 09:00:32;;;;;;;6.90;4.30;;;;;;;;;;5056046;28;20412;-84
2023/03/08 09:02:58;;;;;;;6.33;3.83;;;;;;;;;;5037908;28;20414;-84
2023/03/08 09:05:24;;;;;;;6.47;4.60;;;;;;;;;;5055899;28;20415;-85
2023/03/08 09:07:52;;;;;;;9.63;5.27;;;;;;;;;;5038062;28;20423;-85
2023/03/08 09:10:18;;;;;;;4.97;3.60;;;;;;;;;;5055878;28;20404;-85
2023/03/08 09:12:44;;;;;;;5.87;2.33;;;;;;;;;;5055743;28;20430;-86
2023/03/08 09:15:10;;;;;;;5.57;3.67;;;;;;;;;;5055706;28;20414;-86
2023/03/08 09:17:37;;;;;;;7.60;3.90;;;;;;;;;;5055368;28;20466;-86
2023/03/08 09:20:05;;;;;;;8.30;4.50;;;;;;;;;;5055659;28;20444;-87
2023/03/08 09:22:31;;;;;;;5.20;3.83;;;;;;;;;;5037860;28;20430;-86
2023/03/08 09:24:57;;;;;;;5.57;4.13;;;;;;;;;;5055706;28;20403;-87
2023/03/08 09:27:23;;;;;;;7.87;4.77;;;;;;;;;;5037926;28;20904;-87
2023/03/08 09:29:49;;;;;;;7.83;4.03;;;;;;;;;;5037893;28;20906;-83
2023/03/08 09:32:14;;;;;;;7.90;4.20;;;;;;;;;;5004526;28;20432;-83
2023/03/08 09:34:40;;;;;;;5.77;3.70;;;;;;;;;;5045008;28;20415;-82
2023/03/08 09:37:07;;;;;;;5.47;3.50;;;;;;;;;;5042889;28;20937;-85
2023/03/08 09:39:33;;;;;;;8.50;5.23;;;;;;;;;;5025433;28;20424;-86
2023/03/08 09:42:00;;;;;;;6.53;3.63;;;;;;;;;;5054893;28;20404;-86
2023/03/08 09:44:44;;;;;;;9.37;4.20;;;;;;;;;;5043854;28;20432;-86
2023/03/08 09:47:23;;;;;;;5.60;3.20;;;;;;;;;;5035181;28;20544;-84
2023/03/08 09:49:52;;;;;;;6.30;3.90;;;;;;;;;;5035092;28;20799;-85
2023/03/08 09:52:37;;;;;;;6.00;4.30;;;;;;;;;;5034794;28;20465;-84
2023/03/08 09:55:03;;;;;;;4.33;2.60;;;;;;;;;;5034879;28;20744;-83
2023/03/08 09:57:33;;;;;;;5.37;3.43;;;;;;;;;;5034034;28;20998;-84
2023/03/08 10:00:05;;;;;;;4.53;2.47;;;;;;;;;;5034705;28;20981;-84
2023/03/08 10:02:44;;;;;;;4.97;3.47;;;;;;;;;;5034480;28;20456;-85
2023/03/08 10:05:28;;;;;;;4.00;3.20;;;;;;;;;;5034898;28;20417;-84
2023/03/08 10:08:01;;;;;;;4.43;3.37;;;;;;;;;;5034810;28;20417;-86
2023/03/08 10:10:33;;;;;;;6.70;3.40;;;;;;;;;;5034670;28;20397;-84
2023/03/08 10:13:18;;;;;;;3.03;2.40;;;;;;;;;;5034771;28;20420;-84
2023/03/08 10:15:47;;;;;;;5.80;3.30;;;;;;;;;;5047941;28;20411;-84
2023/03/08 10:18:32;;;;;;;3.87;2.40;;;;;;;;;;5047831;28;20479;-85
2023/03/08 10:20:59;;;;;;;2.63;2.30;;;;;;;;;;5042918;28;20408;-82
2023/03/08 10:23:27;;;;;;;5.03;2.60;;;;;;;;;;5053980;28;20725;-82
2023/03/08 10:25:53;;;;;;;3.80;2.00;;;;;;;;;;5036168;28;20420;-82
2023/03/08 10:28:20;;;;;;;4.17;2.23;;;;;;;;;;5036108;28;20409;-82
2023/03/08 10:30:48;;;;;;;5.37;2.03;;;;;;;;;;5053996;28;20915;-82
2023/03/08 10:33:16;;;;;;;6.63;2.63;;;;;;;;;;5011709;28;20468;-82
2023/03/08 10:36:05;;;;;;;3.97;2.63;;;;;;;;;;5053760;28;20416;-82
2023/03/08 10:38:38;;;;;;;5.10;2.90;;;;;;;;;;5053719;28;20484;-81
2023/03/08 10:41:31;;;;;;;3.87;2.90;;;;;;;;;;5053636;28;20921;-82
2023/03/08 10:43:57;;;;;;;7.03;2.57;;;;;;;;;;5051985;28;20409;-82
2023/03/08 10:46:25;;;;;;;5.93;3.07;;;;;;;;;;5034007;28;20504;-82
2023/03/08 10:48:51;;;;;;;4.93;2.60;;;;;;;;;;5033543;28;20448;-82
2023/03/08 10:51:19;;;;;;;2.93;2.47;;;;;;;;;;5033751;28;20515;-82
2023/03/08 10:53:54;;;;;;;5.83;3.37;;;;;;;;;;5033832;28;20456;-84
2023/03/08 10:56:43;;;;;;;7.53;2.87;;;;;;;;;;5033486;28;20456;-81
2023/03/08 10:59:18;;;;;;;8.37;3.33;;;;;;;;;;5035004;28;20819;-82
2023/03/08 11:01:55;;;;;;;4.27;2.03;;;;;;;;;;5052406;28;20413;-82
2023/03/08 11:04:22;;;;;;;6.67;2.90;;;;;;;;;;5049877;28;20429;-82
2023/03/08 11:06:49;;;;;;;6.70;2.17;;;;;;;;;;5040392;28;20944;-81
2023/03/08 11:09:19;;;;;;;6.03;2.03;;;;;;;;;;5053124;28;20417;-83
2023/03/08 11:11:45;;;;;;;3.37;2.87;;;;;;;;;;5035579;28;20799;-83
2023/03/08 11:14:12;;;;;;;5.97;3.17;;;;;;;;;;5035433;28;20422;-81
2023/03/08 11:16:57;;;;;;;2.60;1.67;;;;;;;;;;5053282;28;20939;-84
2023/03/08 11:19:23;;;;;;;3.67;1.90;;;;;;;;;;5035224;28;21016;-81
2023/03/08 11:22:02;;;;;;;4.47;2.47;;;;;;;;;;5034878;28;20534;-82
2023/03/08 11:24:44;;;;;;;2.57;1.43;;;;;;;;;;5052941;28;20169;-81
2023/03/08 11:27:16;;;;;;;3.17;1.80;;;;;;;;;;5052597;28;20430;-81
2023/03/08 11:29:59;;;;;;;5.40;1.80;;;;;;;;;;5053090;28;20441;-81
2023/03/08 11:32:37;;;;;;;3.83;1.87;;;;;;;;;;5052906;28;20895;-82
2023/03/08 11:35:16;;;;;;;4.07;2.40;;;;;;;;;;5047506;28;20740;-81
2023/03/08 11:38:04;;;;;;;3.37;1.57;;;;;;;;;;5002346;28;20985;-84
2023/03/08 11:40:53;;;;;;;3.60;1.80;;;;;;;;;;5015094;28;20479;-81
2023/03/08 11:43:28;;;;;;;2.33;1.10;;;;;;;;;;5035116;28;20426;-82
2023/03/08 11:46:05;;;;;;;2.63;1.73;;;;;;;;;;5022266;28;20427;-83
2023/03/08 11:48:38;;;;;;;19.00;9.83;;;;;;;;;;5045369;28;20485;-83
2023/03/08 11:51:08;;;;;;;13.90;7.60;;;;;;;;;;5024863;28;20999;-83
2023/03/08 11:53:40;;;;;;;3.77;2.13;;;;;;;;;;5040164;28;20506;-81
2023/03/08 11:56:27;;;;;;;3.23;1.37;;;;;;;;;;5045459;28;20411;-81
2023/03/08 11:59:00;;;;;;;1.60;1.00;;;;;;;;;;5027498;28;20478;-82
2023/03/08 12:01:34;;;;;;;7.20;1.50;;;;;;;;;;5048751;28;20566;-85
2023/03/08 12:04:05;;;;;;;2.60;1.17;;;;;;;;;;5052051;28;20420;-81
2023/03/08 12:06:34;;;;;;;3.10;1.63;;;;;;;;;;5052464;28;20415;-83
2023/03/08 12:09:19;;;;;;;2.70;1.30;;;;;;;;;;5034463;28;20419;-83
2023/03/08 12:11:54;;;;;;;3.75;2.05;;;;;;;;;;5051135;28;20413;-81
2023/03/08 12:14:27;;;;;;;2.70;1.53;;;;;;;;;;5050964;28;20184;-81
2023/03/08 12:17:01;;;;;;;2.63;1.10;;;;;;;;;;5042474;28;20393;-81
2023/03/08 12:19:44;;;;;;;1.70;0.90;;;;;;;;;;5040698;28;20458;-83
2023/03/08 12:22:23;;;;;;;2.87;1.03;;;;;;;;;;5042944;28;20776;-81
2023/03/08 12:24:59;;;;;;;7.60;2.40;;;;;;;;;;5044670;28;20404;-82
2023/03/08 12:27:41;;;;;;;4.13;1.10;;;;;;;;;;5044921;28;20408;-83
2023/03/08 12:30:26;;;;;;;4.73;1.27;;;;;;;;;;5028324;28;20447;-84
2023/03/08 12:32:54;;;;;;;1.40;0.40;;;;;;;;;;5044127;28;20474;-81
2023/03/08 12:35:25;;;;;;;2.67;1.57;;;;;;;;;;5022740;28;20415;-81
2023/03/08 12:37:55;;;;;;;3.03;1.03;;;;;;;;;;5033098;28;20456;-81
2023/03/08 12:40:35;;;;;;;2.17;1.00;;;;;;;;;;5030845;28;20800;-80
2023/03/08 12:43:05;;;;;;;2.87;1.47;;;;;;;;;;5038138;28;20772;-81
2023/03/08 12:45:31;;;;;;;1.43;0.93;;;;;;;;;;5043330;28;20424;-80
2023/03/08 12:48:03;;;;;;;1.60;0.77;;;;;;;;;;5038040;28;20421;-80
2023/03/08 12:50:30;;;;;;;2.30;1.13;;;;;;;;;;5051524;28;20416;-81
2023/03/08 12:52:57;;;;;;;3.63;1.00;;;;;;;;;;5037728;28;20981;-80
2023/03/08 12:55:30;;;;;;;2.57;0.70;;;;;;;;;;5037565;28;20416;-80
2023/03/08 12:57:57;;;;;;;2.53;1.17;;;;;;;;;;5045902;28;20504;-81
2023/03/08 13:00:24;;;;;;;2.43;1.80;;;;;;;;;;5035253;28;20409;-82
2023/03/08 13:03:26;;;;;;;1.83;1.10;;;;;;;;;;5017693;28;20428;-80
2023/03/08 13:05:51;;;;;;;2.90;0.70;;;;;;;;;;5017511;28;20465;-81
2023/03/08 13:08:23;;;;;;;3.07;1.03;;;;;;;;;;5017151;28;20528;-81
2023/03/08 13:10:49;;;;;;;1.43;0.80;;;;;;;;;;5035360;28;20407;-81
2023/03/08 13:13:20;;;;;;;1.73;1.03;;;;;;;;;;5035544;28;20425;-81
2023/03/08 13:15:46;;;;;;;2.93;0.90;;;;;;;;;;5035655;28;20187;-81
2023/03/08 13:18:14;;;;;;;2.00;0.70;;;;;;;;;;5034869;28;20838;-81
2023/03/08 13:20:40;;;;;;;5.13;1.50;;;;;;;;;;5017654;28;20424;-81
2023/03/08 13:23:09;;;;;;;2.33;1.40;;;;;;;;;;5035193;28;20412;-81
2023/03/08 13:25:54;;;;;;;2.10;0.83;;;;;;;;;;5017666;28;20421;-81
2023/03/08 13:28:21;;;;;;;2.33;1.20;;;;;;;;;;5034866;28;20782;-81
2023/03/08 13:30:57;;;;;;;1.43;0.60;;;;;;;;;;5016504;28;20471;-81
2023/03/08 13:33:28;;;;;;;8.90;4.87;;;;;;;;;;5033318;28;20420;-80
2023/03/08 13:36:12;;;;;;;4.63;1.43;;;;;;;;;;5041929;28;20920;-80
2023/03/08 13:38:38;;;;;;;4.90;1.30;;;;;;;;;;5042855;28;20469;-81
2023/03/08 13:41:04;;;;;;;2.37;1.07;;;;;;;;;;5043662;28;20405;-81
2023/03/08 13:43:31;;;;;;;2.27;1.33;;;;;;;;;;5009766;28;20479;-81
2023/03/08 13:45:59;;;;;;;3.80;1.27;;;;;;;;;;5054514;28;20410;-81
2023/03/08 13:48:28;;;;;;;3.07;1.67;;;;;;;;;;5054163;28;20571;-81
2023/03/08 13:50:54;;;;;;;7.03;4.50;;;;;;;;;;5054351;28;20808;-81
2023/03/08 13:53:25;;;;;;;1.70;0.67;;;;;;;;;;5054754;28;20410;-81
2023/03/08 13:55:52;;;;;;;1.67;0.87;;;;;;;;;;5054441;28;20858;-81
2023/03/08 13:58:25;;;;;;;2.17;0.70;;;;;;;;;;5049475;28;20573;-81
2023/03/08 14:00:59;;;;;;;2.20;0.93;;;;;;;;;;5053448;28;20412;-80
2023/03/08 14:03:27;;;;;;;1.20;0.47;;;;;;;;;;5052945;28;20434;-81
2023/03/08 14:05:53;;;;;;;1.67;1.20;;;;;;;;;;5054684;28;20802;-81
2023/03/08 14:08:22;;;;;;;2.43;0.93;;;;;;;;;;5036630;28;20442;-81
2023/03/08 14:10:49;;;;;;;5.00;1.40;;;;;;;;;;5053789;28;20403;-81
2023/03/08 14:13:32;;;;;;;4.00;1.50;;;;;;;;;;5054681;28;20409;-80
2023/03/08 14:15:59;;;;;;;2.53;0.70;;;;;;;;;;5054433;28;20929;-81
2023/03/08 14:18:43;;;;;;;2.97;1.70;;;;;;;;;;5040438;28;20966;-80
2023/03/08 14:21:16;;;;;;;3.10;1.73;;;;;;;;;;5032893;28;20963;-81
2023/03/08 14:23:46;;;;;;;3.53;1.57;;;;;;;;;;5034006;28;20758;-81
2023/03/08 14:26:31;;;;;;;1.60;0.67;;;;;;;;;;5049002;28;20427;-81
2023/03/08 14:29:08;;;;;;;3.70;1.67;;;;;;;;;;5053918;28;20396;-80
2023/03/08 14:31:35;;;;;;;1.53;0.80;;;;;;;;;;5053714;28;20967;-80
2023/03/08 14:34:02;;;;;;;2.77;2.03;;;;;;;;;;5053983;28;20405;-80
2023/03/08 14:36:30;;;;;;;1.80;0.80;;;;;;;;;;5053339;28;20421;-80
2023/03/08 14:38:58;;;;;;;1.30;0.70;;;;;;;;;;5053674;28;20501;-80
2023/03/08 14:41:32;;;;;;;2.10;1.00;;;;;;;;;;5053632;28;20408;-80
2023/03/08 14:43:58;;;;;;;1.70;1.00;;;;;;;;;;5012210;28;20436;-80
2023/03/08 14:46:24;;;;;;;8.03;4.20;;;;;;;;;;5032486;28;20424;-81
2023/03/08 14:48:57;;;;;;;2.83;2.40;;;;;;;;;;5033781;28;20506;-81
2023/03/08 14:51:29;;;;;;;8.00;2.53;;;;;;;;;;5033647;28;20996;-81